sensor_id;sensor_type;location;lat;lon;timestamp;pressure;altitude;pressure_sealevel;temperature;humidity
39411;BME280;26579;43.238;23.124;2023-09-12T00:00:09;97058.81;;;19.11;43.01
39411;BME280;26579;43.238;23.124;2023-09-12T00:02:38;97057.09;;;19.03;42.91
39411;BME280;26579;43.238;23.124;2023-09-12T00:05:04;97071.41;;;19.09;42.94
39411;BME280;26579;43.238;23.124;2023-09-12T00:07:29;97059.03;;;19.09;43.12
39411;BME280;26579;43.238;23.124;2023-09-12T00:09:55;97062.16;;;19.05;43.02
39411;BME280;26579;43.238;23.124;2023-09-12T00:12:22;97061.56;;;19.03;43.39
39411;BME280;26579;43.238;23.124;2023-09-12T00:14:48;97060.91;;;19.00;43.12
39411;BME280;26579;43.238;23.124;2023-09-12T00:17:14;97067.19;;;18.99;43.28
39411;BME280;26579;43.238;23.124;2023-09-12T00:19:40;97073.28;;;19.00;43.43
39411;BME280;26579;43.238;23.124;2023-09-12T00:22:05;97064.34;;;19.01;43.52
39411;BME280;26579;43.238;23.124;2023-09-12T00:24:31;97071.22;;;19.10;43.49
39411;BME280;26579;43.238;23.124;2023-09-12T00:26:56;97068.88;;;19.15;43.21
39411;BME280;26579;43.238;23.124;2023-09-12T00:29:22;97057.13;;;19.18;42.97
39411;BME280;26579;43.238;23.124;2023-09-12T00:31:48;97069.28;;;19.27;43.01
39411;BME280;26579;43.238;23.124;2023-09-12T00:34:17;97069.44;;;19.26;43.31
39411;BME280;26579;43.238;23.124;2023-09-12T00:36:43;97072.38;;;19.31;43.50
39411;BME280;26579;43.238;23.124;2023-09-12T00:39:09;97071.41;;;19.32;44.23
39411;BME280;26579;43.238;23.124;2023-09-12T00:41:34;97080.59;;;19.36;43.75
39411;BME280;26579;43.238;23.124;2023-09-12T00:44:01;97078.81;;;19.28;43.64
39411;BME280;26579;43.238;23.124;2023-09-12T00:46:27;97081.28;;;19.30;43.59
39411;BME280;26579;43.238;23.124;2023-09-12T00:48:53;97063.44;;;19.17;43.03
39411;BME280;26579;43.238;23.124;2023-09-12T00:51:21;97084.19;;;19.20;43.36
39411;BME280;26579;43.238;23.124;2023-09-12T00:53:48;97073.84;;;19.10;43.01
39411;BME280;26579;43.238;23.124;2023-09-12T00:56:14;97084.53;;;19.17;43.11
39411;BME280;26579;43.238;23.124;2023-09-12T00:58:40;97079.44;;;19.15;43.25
39411;BME280;26579;43.238;23.124;2023-09-12T01:01:06;97077.94;;;19.13;43.34
39411;BME280;26579;43.238;23.124;2023-09-12T01:03:32;97080.47;;;19.06;43.30
39411;BME280;26579;43.238;23.124;2023-09-12T01:05:59;97067.19;;;18.99;43.52
39411;BME280;26579;43.238;23.124;2023-09-12T01:08:25;97068.69;;;18.94;43.83
39411;BME280;26579;43.238;23.124;2023-09-12T01:10:52;97081.69;;;18.95;43.71
39411;BME280;26579;43.238;23.124;2023-09-12T01:13:21;97078.59;;;18.92;44.03
39411;BME280;26579;43.238;23.124;2023-09-12T01:15:46;97081.88;;;18.94;43.91
39411;BME280;26579;43.238;23.124;2023-09-12T01:18:12;97080.41;;;18.91;43.79
39411;BME280;26579;43.238;23.124;2023-09-12T01:20:42;97081.75;;;18.87;44.01
39411;BME280;26579;43.238;23.124;2023-09-12T01:26:13;97095.91;;;18.94;43.84
39411;BME280;26579;43.238;23.124;2023-09-12T01:28:44;97086.31;;;18.93;43.87
39411;BME280;26579;43.238;23.124;2023-09-12T01:31:12;97091.09;;;18.98;43.78
39411;BME280;26579;43.238;23.124;2023-09-12T01:33:39;97082.16;;;18.99;43.66
39411;BME280;26579;43.238;23.124;2023-09-12T01:36:05;97085.28;;;19.03;44.14
39411;BME280;26579;43.238;23.124;2023-09-12T01:38:31;97087.38;;;19.07;44.10
39411;BME280;26579;43.238;23.124;2023-09-12T01:40:57;97085.66;;;18.99;44.28
39411;BME280;26579;43.238;23.124;2023-09-12T01:43:24;97087.28;;;19.00;44.02
39411;BME280;26579;43.238;23.124;2023-09-12T01:45:53;97087.59;;;19.06;43.80
39411;BME280;26579;43.238;23.124;2023-09-12T01:48:22;97083.28;;;19.05;44.13
39411;BME280;26579;43.238;23.124;2023-09-12T01:50:49;97078.34;;;19.02;44.17
39411;BME280;26579;43.238;23.124;2023-09-12T01:53:15;97079.72;;;18.97;43.95
39411;BME280;26579;43.238;23.124;2023-09-12T01:55:45;97074.84;;;18.86;44.31
39411;BME280;26579;43.238;23.124;2023-09-12T01:58:12;97074.47;;;18.89;44.26
39411;BME280;26579;43.238;23.124;2023-09-12T02:00:39;97066.72;;;18.88;44.10
39411;BME280;26579;43.238;23.124;2023-09-12T02:03:05;97063.78;;;18.91;44.07
39411;BME280;26579;43.238;23.124;2023-09-12T02:05:31;97073.13;;;18.93;44.05
39411;BME280;26579;43.238;23.124;2023-09-12T02:07:57;97077.22;;;18.96;43.79
39411;BME280;26579;43.238;23.124;2023-09-12T02:10:23;97081.88;;;18.94;43.76
39411;BME280;26579;43.238;23.124;2023-09-12T02:12:49;97078.91;;;18.97;43.63
39411;BME280;26579;43.238;23.124;2023-09-12T02:15:14;97064.41;;;18.93;43.43
39411;BME280;26579;43.238;23.124;2023-09-12T02:17:40;97067.22;;;18.91;43.49
39411;BME280;26579;43.238;23.124;2023-09-12T02:20:09;97081.53;;;18.97;43.17
39411;BME280;26579;43.238;23.124;2023-09-12T02:22:35;97079.88;;;18.96;43.09
39411;BME280;26579;43.238;23.124;2023-09-12T02:25:05;97079.38;;;19.00;42.99
39411;BME280;26579;43.238;23.124;2023-09-12T02:27:31;97079.00;;;19.04;43.39
39411;BME280;26579;43.238;23.124;2023-09-12T02:29:57;97074.75;;;19.03;43.03
39411;BME280;26579;43.238;23.124;2023-09-12T02:32:23;97078.81;;;19.05;42.95
39411;BME280;26579;43.238;23.124;2023-09-12T02:34:48;97078.72;;;18.98;43.32
39411;BME280;26579;43.238;23.124;2023-09-12T02:37:14;97075.72;;;19.02;42.95
39411;BME280;26579;43.238;23.124;2023-09-12T02:39:40;97072.31;;;18.93;42.59
39411;BME280;26579;43.238;23.124;2023-09-12T02:42:05;97074.31;;;18.91;42.70
39411;BME280;26579;43.238;23.124;2023-09-12T02:44:31;97070.50;;;18.93;42.62
39411;BME280;26579;43.238;23.124;2023-09-12T02:46:57;97066.72;;;18.88;42.94
39411;BME280;26579;43.238;23.124;2023-09-12T02:49:23;97072.53;;;18.83;43.09
39411;BME280;26579;43.238;23.124;2023-09-12T02:51:48;97068.59;;;18.79;42.95
39411;BME280;26579;43.238;23.124;2023-09-12T02:54:14;97065.69;;;18.74;43.55
39411;BME280;26579;43.238;23.124;2023-09-12T02:56:40;97067.63;;;18.72;43.98
39411;BME280;26579;43.238;23.124;2023-09-12T02:59:06;97068.84;;;18.61;44.25
39411;BME280;26579;43.238;23.124;2023-09-12T03:01:31;97060.66;;;18.56;43.83
39411;BME280;26579;43.238;23.124;2023-09-12T03:03:57;97056.03;;;18.50;43.84
39411;BME280;26579;43.238;23.124;2023-09-12T03:06:23;97050.63;;;18.43;43.73
39411;BME280;26579;43.238;23.124;2023-09-12T03:08:50;97062.00;;;18.44;43.61
39411;BME280;26579;43.238;23.124;2023-09-12T03:11:15;97065.47;;;18.44;43.37
39411;BME280;26579;43.238;23.124;2023-09-12T03:13:41;97065.59;;;18.51;43.22
39411;BME280;26579;43.238;23.124;2023-09-12T03:16:14;97049.00;;;18.42;43.50
39411;BME280;26579;43.238;23.124;2023-09-12T03:18:40;97053.31;;;18.35;43.83
39411;BME280;26579;43.238;23.124;2023-09-12T03:21:06;97063.50;;;18.38;43.72
39411;BME280;26579;43.238;23.124;2023-09-12T03:23:32;97059.09;;;18.39;43.40
39411;BME280;26579;43.238;23.124;2023-09-12T03:26:05;97066.13;;;18.38;43.37
39411;BME280;26579;43.238;23.124;2023-09-12T03:28:32;97073.38;;;18.44;43.14
39411;BME280;26579;43.238;23.124;2023-09-12T03:31:14;97066.91;;;18.47;43.34
39411;BME280;26579;43.238;23.124;2023-09-12T03:33:42;97079.44;;;18.53;43.07
39411;BME280;26579;43.238;23.124;2023-09-12T03:36:08;97065.91;;;18.56;43.26
39411;BME280;26579;43.238;23.124;2023-09-12T03:38:35;97067.72;;;18.55;42.92
39411;BME280;26579;43.238;23.124;2023-09-12T03:41:01;97072.94;;;18.64;42.83
39411;BME280;26579;43.238;23.124;2023-09-12T03:43:27;97074.09;;;18.61;42.77
39411;BME280;26579;43.238;23.124;2023-09-12T03:45:53;97066.84;;;18.63;41.97
39411;BME280;26579;43.238;23.124;2023-09-12T03:48:19;97071.13;;;18.64;42.14
39411;BME280;26579;43.238;23.124;2023-09-12T03:50:45;97075.22;;;18.67;42.66
39411;BME280;26579;43.238;23.124;2023-09-12T03:53:13;97075.09;;;18.60;43.13
39411;BME280;26579;43.238;23.124;2023-09-12T03:55:38;97054.09;;;18.44;43.06
39411;BME280;26579;43.238;23.124;2023-09-12T03:58:04;97080.38;;;18.60;43.08
39411;BME280;26579;43.238;23.124;2023-09-12T04:00:30;97087.66;;;18.50;43.33
39411;BME280;26579;43.238;23.124;2023-09-12T04:02:56;97084.44;;;18.40;44.01
39411;BME280;26579;43.238;23.124;2023-09-12T04:05:21;97076.69;;;18.38;44.06
39411;BME280;26579;43.238;23.124;2023-09-12T04:07:48;97076.22;;;18.35;44.12
39411;BME280;26579;43.238;23.124;2023-09-12T04:10:14;97081.31;;;18.36;43.90
39411;BME280;26579;43.238;23.124;2023-09-12T04:12:40;97073.69;;;18.41;43.63
39411;BME280;26579;43.238;23.124;2023-09-12T04:15:06;97072.59;;;18.36;43.75
39411;BME280;26579;43.238;23.124;2023-09-12T04:17:32;97076.34;;;18.41;43.70
39411;BME280;26579;43.238;23.124;2023-09-12T04:19:58;97082.28;;;18.43;43.67
39411;BME280;26579;43.238;23.124;2023-09-12T04:22:23;97079.63;;;18.43;43.44
39411;BME280;26579;43.238;23.124;2023-09-12T04:24:49;97082.13;;;18.37;43.71
39411;BME280;26579;43.238;23.124;2023-09-12T04:27:15;97079.97;;;18.40;43.61
39411;BME280;26579;43.238;23.124;2023-09-12T04:29:41;97077.31;;;18.48;43.16
39411;BME280;26579;43.238;23.124;2023-09-12T04:32:06;97081.91;;;18.46;42.86
39411;BME280;26579;43.238;23.124;2023-09-12T04:34:32;97079.63;;;18.43;43.48
39411;BME280;26579;43.238;23.124;2023-09-12T04:36:58;97084.59;;;18.38;43.81
39411;BME280;26579;43.238;23.124;2023-09-12T04:39:25;97072.75;;;18.34;43.46
39411;BME280;26579;43.238;23.124;2023-09-12T04:41:51;97068.50;;;18.33;44.07
39411;BME280;26579;43.238;23.124;2023-09-12T04:44:17;97082.78;;;18.39;44.24
39411;BME280;26579;43.238;23.124;2023-09-12T04:46:42;97078.03;;;18.34;44.09
39411;BME280;26579;43.238;23.124;2023-09-12T04:49:08;97085.38;;;18.47;43.79
39411;BME280;26579;43.238;23.124;2023-09-12T04:51:34;97080.25;;;18.53;44.23
39411;BME280;26579;43.238;23.124;2023-09-12T04:53:59;97077.59;;;18.62;44.37
39411;BME280;26579;43.238;23.124;2023-09-12T04:56:25;97087.84;;;18.88;44.05
39411;BME280;26579;43.238;23.124;2023-09-12T04:58:51;97082.66;;;19.03;43.83
39411;BME280;26579;43.238;23.124;2023-09-12T05:01:17;97079.38;;;19.23;43.21
39411;BME280;26579;43.238;23.124;2023-09-12T05:03:43;97077.44;;;19.40;43.04
39411;BME280;26579;43.238;23.124;2023-09-12T05:06:10;97082.56;;;19.57;42.79
39411;BME280;26579;43.238;23.124;2023-09-12T05:08:36;97084.78;;;19.68;42.69
39411;BME280;26579;43.238;23.124;2023-09-12T05:11:02;97088.47;;;19.82;42.84
39411;BME280;26579;43.238;23.124;2023-09-12T05:13:28;97078.44;;;19.92;42.71
39411;BME280;26579;43.238;23.124;2023-09-12T05:15:54;97074.81;;;20.08;42.74
39411;BME280;26579;43.238;23.124;2023-09-12T05:18:20;97084.66;;;20.14;42.58
39411;BME280;26579;43.238;23.124;2023-09-12T05:20:46;97083.03;;;20.28;42.78
39411;BME280;26579;43.238;23.124;2023-09-12T05:23:12;97090.56;;;20.46;42.63
39411;BME280;26579;43.238;23.124;2023-09-12T05:25:37;97079.63;;;20.49;42.83
39411;BME280;26579;43.238;23.124;2023-09-12T05:28:03;97086.22;;;20.53;42.58
39411;BME280;26579;43.238;23.124;2023-09-12T05:30:29;97081.84;;;20.60;42.76
39411;BME280;26579;43.238;23.124;2023-09-12T05:32:55;97075.22;;;20.71;42.52
39411;BME280;26579;43.238;23.124;2023-09-12T05:35:20;97084.59;;;20.88;42.14
39411;BME280;26579;43.238;23.124;2023-09-12T05:37:46;97075.53;;;20.97;42.24
39411;BME280;26579;43.238;23.124;2023-09-12T05:40:12;97080.53;;;21.07;42.35
39411;BME280;26579;43.238;23.124;2023-09-12T05:42:38;97086.56;;;21.22;42.07
39411;BME280;26579;43.238;23.124;2023-09-12T05:45:04;97079.97;;;21.33;41.82
39411;BME280;26579;43.238;23.124;2023-09-12T05:47:30;97088.66;;;21.48;41.75
39411;BME280;26579;43.238;23.124;2023-09-12T05:49:55;97089.84;;;21.67;41.35
39411;BME280;26579;43.238;23.124;2023-09-12T05:52:21;97091.38;;;21.83;40.55
39411;BME280;26579;43.238;23.124;2023-09-12T05:54:47;97092.09;;;21.99;40.39
39411;BME280;26579;43.238;23.124;2023-09-12T05:57:13;97082.41;;;22.12;40.02
39411;BME280;26579;43.238;23.124;2023-09-12T05:59:39;97076.59;;;22.24;39.82
39411;BME280;26579;43.238;23.124;2023-09-12T06:02:05;97085.66;;;22.43;39.80
39411;BME280;26579;43.238;23.124;2023-09-12T06:04:32;97085.53;;;22.57;39.77
39411;BME280;26579;43.238;23.124;2023-09-12T06:06:58;97088.38;;;22.63;39.84
39411;BME280;26579;43.238;23.124;2023-09-12T06:09:24;97077.19;;;22.67;39.82
39411;BME280;26579;43.238;23.124;2023-09-12T06:11:50;97094.56;;;22.76;39.80
39411;BME280;26579;43.238;23.124;2023-09-12T06:14:15;97089.09;;;22.78;39.83
39411;BME280;26579;43.238;23.124;2023-09-12T06:16:41;97099.47;;;22.79;40.27
39411;BME280;26579;43.238;23.124;2023-09-12T06:19:07;97097.25;;;22.83;40.24
39411;BME280;26579;43.238;23.124;2023-09-12T06:21:33;97105.84;;;22.92;40.64
39411;BME280;26579;43.238;23.124;2023-09-12T06:24:13;97101.25;;;23.14;40.00
39411;BME280;26579;43.238;23.124;2023-09-12T06:26:43;97101.06;;;23.35;39.40
39411;BME280;26579;43.238;23.124;2023-09-12T06:29:10;97102.13;;;23.61;38.54
39411;BME280;26579;43.238;23.124;2023-09-12T06:31:37;97105.84;;;23.80;38.39
39411;BME280;26579;43.238;23.124;2023-09-12T06:34:03;97105.19;;;24.04;37.79
39411;BME280;26579;43.238;23.124;2023-09-12T06:36:29;97104.75;;;24.27;37.61
39411;BME280;26579;43.238;23.124;2023-09-12T06:38:58;97116.34;;;24.59;37.58
39411;BME280;26579;43.238;23.124;2023-09-12T06:41:25;97114.63;;;24.85;37.17
39411;BME280;26579;43.238;23.124;2023-09-12T06:43:51;97116.34;;;25.04;36.24
39411;BME280;26579;43.238;23.124;2023-09-12T06:46:17;97115.50;;;25.17;36.51
39411;BME280;26579;43.238;23.124;2023-09-12T06:48:46;97111.25;;;25.41;35.24
39411;BME280;26579;43.238;23.124;2023-09-12T06:51:12;97118.50;;;25.59;35.79
39411;BME280;26579;43.238;23.124;2023-09-12T06:53:38;97119.97;;;25.80;35.33
39411;BME280;26579;43.238;23.124;2023-09-12T06:56:07;97117.84;;;25.95;35.68
39411;BME280;26579;43.238;23.124;2023-09-12T06:58:34;97120.53;;;26.14;35.60
39411;BME280;26579;43.238;23.124;2023-09-12T07:01:06;97124.19;;;26.38;35.47
39411;BME280;26579;43.238;23.124;2023-09-12T07:03:33;97120.22;;;26.47;35.05
39411;BME280;26579;43.238;23.124;2023-09-12T07:05:59;97123.44;;;26.49;34.32
39411;BME280;26579;43.238;23.124;2023-09-12T07:08:25;97118.16;;;26.68;34.75
39411;BME280;26579;43.238;23.124;2023-09-12T07:10:51;97127.69;;;26.94;34.57
39411;BME280;26579;43.238;23.124;2023-09-12T07:13:17;97130.63;;;27.04;32.71
39411;BME280;26579;43.238;23.124;2023-09-12T07:15:42;97127.41;;;27.14;32.02
39411;BME280;26579;43.238;23.124;2023-09-12T07:18:08;97121.50;;;27.12;31.32
39411;BME280;26579;43.238;23.124;2023-09-12T07:20:34;97124.94;;;27.00;31.67
39411;BME280;26579;43.238;23.124;2023-09-12T07:23:00;97127.50;;;27.07;31.67
39411;BME280;26579;43.238;23.124;2023-09-12T07:25:26;97134.63;;;27.13;31.42
39411;BME280;26579;43.238;23.124;2023-09-12T07:27:52;97128.63;;;27.18;31.70
39411;BME280;26579;43.238;23.124;2023-09-12T07:30:18;97128.78;;;27.23;30.87
39411;BME280;26579;43.238;23.124;2023-09-12T07:32:44;97129.31;;;27.43;30.88
39411;BME280;26579;43.238;23.124;2023-09-12T07:35:10;97116.31;;;27.59;30.55
39411;BME280;26579;43.238;23.124;2023-09-12T07:37:36;97132.91;;;27.79;30.67
39411;BME280;26579;43.238;23.124;2023-09-12T07:40:01;97127.78;;;28.01;30.68
39411;BME280;26579;43.238;23.124;2023-09-12T07:42:27;97128.25;;;28.10;29.23
39411;BME280;26579;43.238;23.124;2023-09-12T07:44:53;97135.81;;;28.13;29.77
39411;BME280;26579;43.238;23.124;2023-09-12T07:47:19;97124.91;;;28.14;29.66
39411;BME280;26579;43.238;23.124;2023-09-12T07:49:44;97134.78;;;28.37;30.72
39411;BME280;26579;43.238;23.124;2023-09-12T07:52:10;97127.69;;;28.55;30.73
39411;BME280;26579;43.238;23.124;2023-09-12T07:54:36;97131.72;;;28.69;30.33
39411;BME280;26579;43.238;23.124;2023-09-12T07:57:02;97135.44;;;28.68;29.71
39411;BME280;26579;43.238;23.124;2023-09-12T07:59:27;97129.03;;;28.81;29.07
39411;BME280;26579;43.238;23.124;2023-09-12T08:01:53;97139.38;;;28.89;28.89
39411;BME280;26579;43.238;23.124;2023-09-12T08:04:19;97131.09;;;28.91;28.04
39411;BME280;26579;43.238;23.124;2023-09-12T08:06:44;97150.41;;;29.04;28.14
39411;BME280;26579;43.238;23.124;2023-09-12T08:09:10;97143.94;;;29.17;28.04
39411;BME280;26579;43.238;23.124;2023-09-12T08:11:36;97143.66;;;29.30;27.66
39411;BME280;26579;43.238;23.124;2023-09-12T08:14:01;97131.13;;;29.19;26.48
39411;BME280;26579;43.238;23.124;2023-09-12T08:16:27;97135.69;;;29.19;26.73
39411;BME280;26579;43.238;23.124;2023-09-12T08:18:53;97136.44;;;29.31;27.14
39411;BME280;26579;43.238;23.124;2023-09-12T08:21:19;97131.06;;;29.31;26.49
39411;BME280;26579;43.238;23.124;2023-09-12T08:23:44;97136.78;;;29.51;25.69
39411;BME280;26579;43.238;23.124;2023-09-12T08:26:10;97137.81;;;29.62;25.76
39411;BME280;26579;43.238;23.124;2023-09-12T08:28:36;97135.97;;;29.80;25.59
39411;BME280;26579;43.238;23.124;2023-09-12T08:31:02;97133.03;;;29.81;24.22
39411;BME280;26579;43.238;23.124;2023-09-12T08:33:27;97116.28;;;29.91;23.98
39411;BME280;26579;43.238;23.124;2023-09-12T08:35:53;97131.97;;;29.99;23.86
39411;BME280;26579;43.238;23.124;2023-09-12T08:38:19;97119.59;;;30.15;23.85
39411;BME280;26579;43.238;23.124;2023-09-12T08:40:51;97127.72;;;30.20;23.99
39411;BME280;26579;43.238;23.124;2023-09-12T08:43:17;97126.59;;;30.33;23.52
39411;BME280;26579;43.238;23.124;2023-09-12T08:45:43;97127.63;;;30.49;23.10
39411;BME280;26579;43.238;23.124;2023-09-12T08:48:10;97119.44;;;30.60;24.03
39411;BME280;26579;43.238;23.124;2023-09-12T08:50:36;97121.19;;;30.72;24.83
39411;BME280;26579;43.238;23.124;2023-09-12T08:53:02;97128.72;;;30.92;24.69
39411;BME280;26579;43.238;23.124;2023-09-12T08:55:28;97121.88;;;30.62;24.29
39411;BME280;26579;43.238;23.124;2023-09-12T08:57:55;97138.00;;;30.62;24.29
39411;BME280;26579;43.238;23.124;2023-09-12T09:00:22;97136.50;;;30.71;24.28
39411;BME280;26579;43.238;23.124;2023-09-12T09:02:48;97127.69;;;30.76;24.95
39411;BME280;26579;43.238;23.124;2023-09-12T09:05:16;97126.63;;;30.77;25.84
39411;BME280;26579;43.238;23.124;2023-09-12T09:07:43;97126.03;;;30.92;25.73
39411;BME280;26579;43.238;23.124;2023-09-12T09:10:15;97126.34;;;30.95;24.99
39411;BME280;26579;43.238;23.124;2023-09-12T09:12:43;97131.38;;;30.92;25.39
39411;BME280;26579;43.238;23.124;2023-09-12T09:15:28;97121.06;;;31.05;26.12
39411;BME280;26579;43.238;23.124;2023-09-12T09:17:56;97124.84;;;31.31;26.42
39411;BME280;26579;43.238;23.124;2023-09-12T09:20:25;97127.69;;;31.42;26.58
39411;BME280;26579;43.238;23.124;2023-09-12T09:23:04;97118.53;;;31.21;26.39
39411;BME280;26579;43.238;23.124;2023-09-12T09:25:34;97125.59;;;31.27;26.66
39411;BME280;26579;43.238;23.124;2023-09-12T09:28:03;97113.50;;;31.24;25.70
39411;BME280;26579;43.238;23.124;2023-09-12T09:30:43;97117.16;;;31.40;25.72
39411;BME280;26579;43.238;23.124;2023-09-12T09:33:10;97120.19;;;31.49;26.24
39411;BME280;26579;43.238;23.124;2023-09-12T09:35:37;97112.53;;;31.35;26.44
39411;BME280;26579;43.238;23.124;2023-09-12T09:38:05;97104.91;;;31.27;26.16
39411;BME280;26579;43.238;23.124;2023-09-12T09:40:32;97106.41;;;31.40;26.39
39411;BME280;26579;43.238;23.124;2023-09-12T09:43:02;97106.34;;;31.67;26.24
39411;BME280;26579;43.238;23.124;2023-09-12T09:45:29;97092.00;;;31.89;26.24
39411;BME280;26579;43.238;23.124;2023-09-12T09:48:19;97098.91;;;32.12;25.73
39411;BME280;26579;43.238;23.124;2023-09-12T09:50:46;97099.72;;;32.12;23.88
39411;BME280;26579;43.238;23.124;2023-09-12T09:53:11;97098.84;;;32.01;24.80
39411;BME280;26579;43.238;23.124;2023-09-12T09:55:37;97098.66;;;32.13;25.41
39411;BME280;26579;43.238;23.124;2023-09-12T09:58:05;97099.00;;;32.27;24.90
39411;BME280;26579;43.238;23.124;2023-09-12T10:00:33;97101.94;;;32.25;24.82
39411;BME280;26579;43.238;23.124;2023-09-12T10:03:04;97097.97;;;32.33;24.66
39411;BME280;26579;43.238;23.124;2023-09-12T10:05:31;97096.28;;;32.22;24.78
39411;BME280;26579;43.238;23.124;2023-09-12T10:07:57;97088.47;;;32.25;24.67
39411;BME280;26579;43.238;23.124;2023-09-12T10:10:26;97092.84;;;32.37;23.85
39411;BME280;26579;43.238;23.124;2023-09-12T10:12:56;97085.31;;;32.39;23.95
39411;BME280;26579;43.238;23.124;2023-09-12T10:15:23;97085.13;;;32.51;24.81
39411;BME280;26579;43.238;23.124;2023-09-12T10:18:00;97079.78;;;32.61;25.31
39411;BME280;26579;43.238;23.124;2023-09-12T10:20:35;97077.97;;;32.77;24.70
39411;BME280;26579;43.238;23.124;2023-09-12T10:23:37;97078.53;;;32.89;23.44
39411;BME280;26579;43.238;23.124;2023-09-12T10:26:04;97073.34;;;32.72;23.53
39411;BME280;26579;43.238;23.124;2023-09-12T10:28:31;97066.88;;;32.68;23.40
39411;BME280;26579;43.238;23.124;2023-09-12T10:30:57;97070.34;;;32.63;23.68
39411;BME280;26579;43.238;23.124;2023-09-12T10:33:25;97064.94;;;32.53;23.54
39411;BME280;26579;43.238;23.124;2023-09-12T10:35:51;97066.31;;;32.61;23.57
39411;BME280;26579;43.238;23.124;2023-09-12T10:38:18;97067.44;;;32.70;24.12
39411;BME280;26579;43.238;23.124;2023-09-12T10:40:46;97061.44;;;32.58;23.25
39411;BME280;26579;43.238;23.124;2023-09-12T10:43:13;97061.53;;;32.73;23.15
39411;BME280;26579;43.238;23.124;2023-09-12T10:45:40;97057.75;;;32.79;22.26
39411;BME280;26579;43.238;23.124;2023-09-12T10:48:06;97056.66;;;32.75;22.64
39411;BME280;26579;43.238;23.124;2023-09-12T10:50:32;97054.50;;;32.77;22.39
39411;BME280;26579;43.238;23.124;2023-09-12T10:53:11;97054.25;;;32.84;22.09
39411;BME280;26579;43.238;23.124;2023-09-12T10:55:38;97052.66;;;32.88;22.57
39411;BME280;26579;43.238;23.124;2023-09-12T10:58:05;97053.97;;;32.80;22.55
39411;BME280;26579;43.238;23.124;2023-09-12T11:00:31;97060.44;;;32.74;22.37
39411;BME280;26579;43.238;23.124;2023-09-12T11:02:57;97053.63;;;32.51;22.57
39411;BME280;26579;43.238;23.124;2023-09-12T11:08:01;97039.63;;;32.54;22.48
39411;BME280;26579;43.238;23.124;2023-09-12T11:10:27;97040.47;;;32.65;23.21
39411;BME280;26579;43.238;23.124;2023-09-12T11:12:55;97038.50;;;32.45;23.27
39411;BME280;26579;43.238;23.124;2023-09-12T11:15:22;97041.81;;;32.67;22.81
39411;BME280;26579;43.238;23.124;2023-09-12T11:21:00;97049.75;;;33.00;22.29
39411;BME280;26579;43.238;23.124;2023-09-12T11:23:26;97045.38;;;32.88;22.28
39411;BME280;26579;43.238;23.124;2023-09-12T11:26:06;97048.63;;;32.96;23.71
39411;BME280;26579;43.238;23.124;2023-09-12T11:28:32;97027.88;;;32.91;22.85
39411;BME280;26579;43.238;23.124;2023-09-12T11:30:58;97034.66;;;33.04;22.40
39411;BME280;26579;43.238;23.124;2023-09-12T11:33:27;97038.16;;;33.09;22.08
39411;BME280;26579;43.238;23.124;2023-09-12T11:35:54;97041.38;;;33.01;21.06
39411;BME280;26579;43.238;23.124;2023-09-12T11:38:27;97047.88;;;33.10;21.46
39411;BME280;26579;43.238;23.124;2023-09-12T11:40:52;97038.69;;;33.06;21.04
39411;BME280;26579;43.238;23.124;2023-09-12T11:43:26;97037.78;;;32.65;21.02
39411;BME280;26579;43.238;23.124;2023-09-12T11:45:52;97033.94;;;32.51;21.23
39411;BME280;26579;43.238;23.124;2023-09-12T11:48:19;97037.72;;;32.50;21.47
39411;BME280;26579;43.238;23.124;2023-09-12T11:50:56;97023.16;;;32.51;21.70
39411;BME280;26579;43.238;23.124;2023-09-12T11:53:24;97028.84;;;32.59;21.67
39411;BME280;26579;43.238;23.124;2023-09-12T11:55:51;97025.38;;;32.69;21.55
39411;BME280;26579;43.238;23.124;2023-09-12T11:58:19;97027.31;;;32.79;22.25
39411;BME280;26579;43.238;23.124;2023-09-12T12:00:50;97024.34;;;32.96;22.51
39411;BME280;26579;43.238;23.124;2023-09-12T12:03:17;97030.06;;;33.09;23.23
39411;BME280;26579;43.238;23.124;2023-09-12T12:05:44;97024.94;;;33.13;21.17
39411;BME280;26579;43.238;23.124;2023-09-12T12:08:10;97025.50;;;33.20;21.34
39411;BME280;26579;43.238;23.124;2023-09-12T12:10:36;97014.97;;;33.24;22.12
39411;BME280;26579;43.238;23.124;2023-09-12T12:13:02;97016.59;;;33.20;20.77
39411;BME280;26579;43.238;23.124;2023-09-12T12:15:28;97015.78;;;33.09;21.02
39411;BME280;26579;43.238;23.124;2023-09-12T12:17:55;97007.19;;;33.22;21.92
39411;BME280;26579;43.238;23.124;2023-09-12T12:20:20;97005.00;;;33.14;21.00
39411;BME280;26579;43.238;23.124;2023-09-12T12:22:46;97017.94;;;33.27;22.48
39411;BME280;26579;43.238;23.124;2023-09-12T12:25:12;97009.59;;;33.34;21.30
39411;BME280;26579;43.238;23.124;2023-09-12T12:27:39;97007.41;;;33.36;20.94
39411;BME280;26579;43.238;23.124;2023-09-12T12:30:08;97018.47;;;33.45;21.17
39411;BME280;26579;43.238;23.124;2023-09-12T12:32:34;97009.59;;;33.44;21.96
39411;BME280;26579;43.238;23.124;2023-09-12T12:34:59;97014.72;;;33.35;20.61
39411;BME280;26579;43.238;23.124;2023-09-12T12:37:29;97007.97;;;33.38;22.02
39411;BME280;26579;43.238;23.124;2023-09-12T12:39:54;97005.28;;;33.38;21.04
39411;BME280;26579;43.238;23.124;2023-09-12T12:42:20;97002.06;;;33.31;21.13
39411;BME280;26579;43.238;23.124;2023-09-12T12:44:46;97009.59;;;33.24;20.70
39411;BME280;26579;43.238;23.124;2023-09-12T12:47:11;96993.88;;;32.90;21.06
39411;BME280;26579;43.238;23.124;2023-09-12T12:49:38;97003.06;;;32.89;21.40
39411;BME280;26579;43.238;23.124;2023-09-12T12:52:04;97001.72;;;32.91;21.00
39411;BME280;26579;43.238;23.124;2023-09-12T12:54:32;97000.94;;;33.01;20.90
39411;BME280;26579;43.238;23.124;2023-09-12T12:56:58;97000.16;;;33.11;21.17